Time;durP1;ratioP1;P1;durP2;ratioP2;P2;SDS_P1;SDS_P2;PMS_P1;PMS_P2;Temp;Humidity;BMP_temperature;BMP_pressure;BME280_temperature;BME280_humidity;BME280_pressure;Samples;Min_cycle;Max_cycle;Signal;HPM_P1;HPM_P2
2021/12/05 00:20:37;;;;;;;1.08;0.60;;;;;;;;;;5057390;28;20124;-89
2021/12/05 00:22:55;;;;;;;0.43;0.40;;;;;;;;;;5057691;28;20021;-89
2021/12/05 00:25:24;;;;;;;1.58;0.68;;;;;;;;;;5054972;28;20480;-88
2021/12/05 01:16:18;;;;;;;3.40;0.93;;;;;;;;;;5048520;28;20041;-88
2021/12/05 01:18:45;;;;;;;1.25;0.50;;;;;;;;;;5042202;28;20366;-87
2021/12/05 01:21:12;;;;;;;0.90;0.40;;;;;;;;;;5058412;28;20032;-88
2021/12/05 01:26:17;;;;;;;1.67;0.63;;;;;;;;;;5057359;28;20043;-88
2021/12/05 01:29:01;;;;;;;1.35;0.75;;;;;;;;;;5041535;28;20025;-89
2021/12/05 01:31:58;;;;;;;1.98;0.77;;;;;;;;;;5041529;28;20029;-90
2021/12/05 01:53:16;;;;;;;2.47;0.70;;;;;;;;;;5058306;28;20044;-90
2021/12/05 01:56:12;;;;;;;2.13;0.60;;;;;;;;;;5058051;28;20025;-89
2021/12/05 02:34:01;;;;;;;1.17;0.50;;;;;;;;;;5058756;28;20079;-90
2021/12/05 02:41:42;;;;;;;1.45;0.38;;;;;;;;;;5056715;28;20048;-89
2021/12/05 02:44:20;;;;;;;0.77;0.30;;;;;;;;;;5040933;28;20025;-89
2021/12/05 02:46:48;;;;;;;0.70;0.40;;;;;;;;;;5039089;28;20123;-89
2021/12/05 02:49:16;;;;;;;2.53;0.60;;;;;;;;;;5055278;28;20036;-89
2021/12/05 02:51:41;;;;;;;1.65;0.47;;;;;;;;;;5055916;28;20025;-89
2021/12/05 02:54:13;;;;;;;0.75;0.47;;;;;;;;;;5055384;28;20087;-88
2021/12/05 02:56:43;;;;;;;1.17;0.50;;;;;;;;;;5054114;28;20033;-88
2021/12/05 02:59:41;;;;;;;1.05;0.60;;;;;;;;;;5054974;28;20029;-89
2021/12/05 03:02:02;;;;;;;0.98;0.63;;;;;;;;;;5054136;28;20047;-88
2021/12/05 03:04:31;;;;;;;2.63;0.70;;;;;;;;;;5038997;28;20074;-88
2021/12/05 03:06:59;;;;;;;0.75;0.50;;;;;;;;;;5037990;28;20377;-88
2021/12/05 03:09:25;;;;;;;2.47;0.57;;;;;;;;;;5055510;28;20036;-88
2021/12/05 03:11:50;;;;;;;3.35;0.65;;;;;;;;;;5038212;28;20083;-89
2021/12/05 03:14:16;;;;;;;2.70;0.50;;;;;;;;;;5053964;28;20048;-88
2021/12/05 03:16:41;;;;;;;1.83;0.70;;;;;;;;;;5038624;28;20024;-89
2021/12/05 03:19:09;;;;;;;1.23;0.60;;;;;;;;;;5038751;28;20116;-89
2021/12/05 03:21:35;;;;;;;5.75;0.75;;;;;;;;;;5055761;28;20079;-89
2021/12/05 03:24:00;;;;;;;2.65;0.63;;;;;;;;;;5055843;28;20036;-88
2021/12/05 03:26:28;;;;;;;2.38;0.70;;;;;;;;;;5038458;28;20461;-88
2021/12/05 03:28:55;;;;;;;1.35;0.68;;;;;;;;;;5053886;28;20037;-88
2021/12/05 03:31:21;;;;;;;1.25;0.70;;;;;;;;;;5037529;28;20098;-89
2021/12/05 03:33:49;;;;;;;0.88;0.57;;;;;;;;;;5038196;28;20029;-89
2021/12/05 03:36:16;;;;;;;1.45;0.70;;;;;;;;;;5037665;28;20032;-89
2021/12/05 03:38:42;;;;;;;1.40;0.60;;;;;;;;;;5054247;28;20035;-89
2021/12/05 03:41:10;;;;;;;1.60;0.65;;;;;;;;;;5037895;28;20037;-89
2021/12/05 03:43:37;;;;;;;2.30;0.80;;;;;;;;;;5055096;28;20044;-89
2021/12/05 03:46:02;;;;;;;2.33;0.70;;;;;;;;;;5053899;28;20033;-89
2021/12/05 03:48:29;;;;;;;2.20;0.70;;;;;;;;;;5054436;28;20112;-90
2021/12/05 03:50:55;;;;;;;1.15;0.70;;;;;;;;;;5054228;28;20515;-89
2021/12/05 03:53:24;;;;;;;3.90;0.70;;;;;;;;;;5038281;28;20063;-89
2021/12/05 03:55:53;;;;;;;1.30;0.63;;;;;;;;;;5053849;28;20036;-89
2021/12/05 03:58:18;;;;;;;1.20;0.55;;;;;;;;;;5053858;28;20013;-89
2021/12/05 04:00:45;;;;;;;2.80;0.60;;;;;;;;;;5039891;28;20032;-89
2021/12/05 04:03:12;;;;;;;2.70;0.70;;;;;;;;;;5053764;28;20040;-89
2021/12/05 04:05:39;;;;;;;1.40;0.85;;;;;;;;;;5038903;28;20052;-88
2021/12/05 04:08:07;;;;;;;1.13;0.50;;;;;;;;;;5039720;28;20036;-89
2021/12/05 04:10:32;;;;;;;1.00;0.50;;;;;;;;;;5043059;28;20033;-89
2021/12/05 04:12:58;;;;;;;1.33;0.52;;;;;;;;;;5059099;28;20063;-88
2021/12/05 04:15:23;;;;;;;1.90;0.60;;;;;;;;;;5057760;28;20037;-89
2021/12/05 04:17:50;;;;;;;2.67;0.60;;;;;;;;;;5059877;28;20048;-89
2021/12/05 04:20:15;;;;;;;1.85;0.70;;;;;;;;;;5041597;28;20037;-88
2021/12/05 04:22:41;;;;;;;2.30;0.85;;;;;;;;;;5058052;28;20035;-89
2021/12/05 04:25:10;;;;;;;1.52;0.70;;;;;;;;;;5057751;28;20037;-88
2021/12/05 04:27:35;;;;;;;0.70;0.70;;;;;;;;;;5057770;28;20021;-89
2021/12/05 04:30:01;;;;;;;0.85;0.68;;;;;;;;;;5058001;28;20037;-88
2021/12/05 04:32:26;;;;;;;0.82;0.70;;;;;;;;;;5041321;28;20396;-88
2021/12/05 04:34:51;;;;;;;3.03;0.82;;;;;;;;;;5040522;28;20131;-88
2021/12/05 04:37:19;;;;;;;2.63;0.90;;;;;;;;;;5057086;28;20048;-88
2021/12/05 04:39:44;;;;;;;1.55;0.70;;;;;;;;;;5040934;28;20044;-88
2021/12/05 04:42:10;;;;;;;2.25;0.82;;;;;;;;;;5041067;28;20040;-88
2021/12/05 04:44:35;;;;;;;1.70;0.70;;;;;;;;;;5057696;28;20096;-88
2021/12/05 04:47:01;;;;;;;2.30;0.68;;;;;;;;;;5040489;28;20054;-89
2021/12/05 04:49:27;;;;;;;3.28;0.70;;;;;;;;;;5057100;28;20477;-89
2021/12/05 04:51:54;;;;;;;2.00;0.80;;;;;;;;;;5041104;28;20056;-89
2021/12/05 04:54:19;;;;;;;1.38;0.60;;;;;;;;;;5041427;28;20048;-89
2021/12/05 04:56:48;;;;;;;1.55;0.73;;;;;;;;;;5040644;28;20036;-89
2021/12/05 04:59:15;;;;;;;2.25;0.70;;;;;;;;;;5040801;28;20144;-89
2021/12/05 05:01:42;;;;;;;2.55;0.70;;;;;;;;;;5040839;28;20094;-88
2021/12/05 05:04:16;;;;;;;2.25;0.80;;;;;;;;;;5040698;28;20036;-89
2021/12/05 05:06:42;;;;;;;2.47;0.70;;;;;;;;;;5040579;28;20033;-89
2021/12/05 05:09:07;;;;;;;3.70;0.90;;;;;;;;;;5040688;28;20434;-89
2021/12/05 05:11:32;;;;;;;2.67;0.88;;;;;;;;;;5040875;28;20032;-89
2021/12/05 05:13:58;;;;;;;2.83;0.70;;;;;;;;;;5039860;28;20051;-89
2021/12/05 05:16:25;;;;;;;4.43;0.70;;;;;;;;;;5056995;28;20029;-89
2021/12/05 05:18:54;;;;;;;1.90;0.70;;;;;;;;;;5056298;28;20053;-88
2021/12/05 05:21:35;;;;;;;5.03;0.88;;;;;;;;;;5040324;28;20123;-89
2021/12/05 05:39:59;;;;;;;5.90;1.00;;;;;;;;;;5055820;28;20439;-89
2021/12/05 05:50:14;;;;;;;7.20;1.02;;;;;;;;;;5057399;28;20443;-89
2021/12/05 05:52:39;;;;;;;2.40;0.90;;;;;;;;;;5056863;28;20033;-89
2021/12/05 05:55:05;;;;;;;3.15;1.08;;;;;;;;;;5057113;28;20612;-89
2021/12/05 06:05:22;;;;;;;6.22;1.30;;;;;;;;;;5057050;28;20083;-89
2021/12/05 06:07:48;;;;;;;2.60;0.80;;;;;;;;;;5055665;28;20017;-88
2021/12/05 06:10:13;;;;;;;3.55;1.00;;;;;;;;;;5056173;28;20021;-88
2021/12/05 06:12:38;;;;;;;4.95;0.90;;;;;;;;;;5038783;28;20481;-88
2021/12/05 06:15:04;;;;;;;6.75;2.15;;;;;;;;;;5055318;28;20037;-88
2021/12/05 06:17:30;;;;;;;6.20;1.80;;;;;;;;;;5039349;28;20035;-88
2021/12/05 06:19:55;;;;;;;5.68;1.30;;;;;;;;;;5039865;28;20382;-88
2021/12/05 06:22:21;;;;;;;7.22;1.80;;;;;;;;;;5056140;28;20009;-88
2021/12/05 06:24:46;;;;;;;7.25;2.17;;;;;;;;;;5057501;28;20024;-87
2021/12/05 06:27:12;;;;;;;8.63;2.80;;;;;;;;;;5056587;28;20481;-88
2021/12/05 06:29:44;;;;;;;7.07;1.98;;;;;;;;;;5056208;28;20055;-88
2021/12/05 06:38:06;;;;;;;4.15;1.30;;;;;;;;;;5057105;28;20128;-88
2021/12/05 06:40:22;;;;;;;4.75;1.20;;;;;;;;;;5053931;28;20068;-88
2021/12/05 06:42:57;;;;;;;4.53;1.52;;;;;;;;;;5038934;28;20116;-88
2021/12/05 06:48:07;;;;;;;4.68;1.65;;;;;;;;;;5055645;28;20037;-89
2021/12/05 06:50:32;;;;;;;3.17;1.42;;;;;;;;;;5055602;28;20116;-88
2021/12/05 06:52:58;;;;;;;2.85;1.10;;;;;;;;;;5055732;28;20033;-88
2021/12/05 06:55:23;;;;;;;1.63;1.08;;;;;;;;;;5056313;28;20469;-88
2021/12/05 06:57:49;;;;;;;3.15;1.10;;;;;;;;;;5055943;28;20044;-88
2021/12/05 07:00:14;;;;;;;3.80;1.08;;;;;;;;;;5054453;28;20080;-88
2021/12/05 07:02:39;;;;;;;2.13;1.30;;;;;;;;;;5054742;28;20041;-87
2021/12/05 07:07:49;;;;;;;2.22;1.30;;;;;;;;;;5056338;28;20044;-88
2021/12/05 07:10:17;;;;;;;2.28;1.30;;;;;;;;;;5058355;28;20045;-88
2021/12/05 07:18:49;;;;;;;4.75;2.08;;;;;;;;;;5048464;28;20516;-88
2021/12/05 07:42:24;;;;;;;6.13;2.40;;;;;;;;;;5056264;28;20104;-89
2021/12/05 07:44:49;;;;;;;3.97;2.00;;;;;;;;;;5038452;28;20021;-88
2021/12/05 07:47:19;;;;;;;2.92;1.65;;;;;;;;;;5056328;28;20043;-89
2021/12/05 07:49:45;;;;;;;3.78;1.77;;;;;;;;;;5055692;28;20108;-88
2021/12/05 07:52:15;;;;;;;6.03;1.90;;;;;;;;;;5056582;28;20039;-88
2021/12/05 07:54:45;;;;;;;3.40;1.60;;;;;;;;;;5055138;28;20040;-88
2021/12/05 08:16:31;;;;;;;7.50;1.92;;;;;;;;;;5057259;28;20029;-89
2021/12/05 08:18:56;;;;;;;3.63;1.70;;;;;;;;;;5038958;28;20040;-89
2021/12/05 08:21:22;;;;;;;3.58;1.60;;;;;;;;;;5056701;28;20033;-90
2021/12/05 08:23:49;;;;;;;2.58;1.10;;;;;;;;;;5056500;28;20033;-89
2021/12/05 08:26:19;;;;;;;2.63;1.05;;;;;;;;;;5052992;28;20485;-89
2021/12/05 08:29:07;;;;;;;4.28;1.10;;;;;;;;;;5037773;28;20041;-89
2021/12/05 08:32:18;;;;;;;2.85;1.30;;;;;;;;;;5055479;28;20033;-90
2021/12/05 09:30:58;;;;;;;5.32;1.52;;;;;;;;;;5056173;28;20041;-88
2021/12/05 10:09:25;;;;;;;4.15;2.13;;;;;;;;;;5037812;28;20535;-89
2021/12/05 10:38:26;;;;;;;5.15;2.03;;;;;;;;;;5036228;28;20099;-89
2021/12/05 10:41:03;;;;;;;4.75;1.90;;;;;;;;;;5052912;28;20048;-89
2021/12/05 10:43:28;;;;;;;7.10;1.77;;;;;;;;;;5052763;28;20067;-89
2021/12/05 10:45:53;;;;;;;6.15;1.63;;;;;;;;;;5035041;28;20033;-89
2021/12/05 10:48:19;;;;;;;6.38;1.90;;;;;;;;;;5035302;28;20041;-89
2021/12/05 10:50:44;;;;;;;4.28;1.50;;;;;;;;;;5035446;28;20033;-89
2021/12/05 10:53:09;;;;;;;3.90;1.67;;;;;;;;;;5035270;28;20049;-89
2021/12/05 10:55:35;;;;;;;5.32;1.88;;;;;;;;;;5035289;28;20030;-89
2021/12/05 10:58:02;;;;;;;6.63;2.10;;;;;;;;;;5036503;28;20056;-90
2021/12/05 11:00:27;;;;;;;5.25;1.88;;;;;;;;;;5034975;28;20033;-89
2021/12/05 11:02:52;;;;;;;6.68;2.30;;;;;;;;;;5035978;28;20422;-89
2021/12/05 11:05:18;;;;;;;6.55;2.70;;;;;;;;;;5035150;28;20033;-89
2021/12/05 11:07:43;;;;;;;4.78;2.00;;;;;;;;;;5038424;28;20028;-89
2021/12/05 11:10:08;;;;;;;7.72;2.50;;;;;;;;;;5056005;28;20089;-88
2021/12/05 11:12:33;;;;;;;6.88;2.13;;;;;;;;;;5058053;28;20132;-89
2021/12/05 11:15:01;;;;;;;8.23;2.25;;;;;;;;;;5040661;28;20060;-89
2021/12/05 11:17:26;;;;;;;5.93;2.60;;;;;;;;;;5056691;28;20041;-89
2021/12/05 11:19:51;;;;;;;7.63;3.00;;;;;;;;;;5055352;28;20045;-88
2021/12/05 11:22:17;;;;;;;7.20;2.97;;;;;;;;;;5039498;28;20064;-88
2021/12/05 11:24:43;;;;;;;9.07;2.95;;;;;;;;;;5055805;28;20025;-88
2021/12/05 11:27:08;;;;;;;7.00;3.03;;;;;;;;;;5056505;28;20090;-88
2021/12/05 11:29:34;;;;;;;9.55;2.70;;;;;;;;;;5039545;28;20115;-89
2021/12/05 11:31:59;;;;;;;7.63;2.55;;;;;;;;;;5055317;28;20036;-89
2021/12/05 11:34:24;;;;;;;8.90;2.78;;;;;;;;;;5039256;28;20044;-89
2021/12/05 11:36:50;;;;;;;7.32;2.90;;;;;;;;;;5057820;28;20098;-89
2021/12/05 11:39:15;;;;;;;6.85;2.20;;;;;;;;;;5044267;28;20546;-88
2021/12/05 11:41:41;;;;;;;5.78;2.47;;;;;;;;;;5062739;28;20473;-88
2021/12/05 11:44:06;;;;;;;8.15;2.25;;;;;;;;;;5041997;28;20033;-88
2021/12/05 11:46:32;;;;;;;9.82;2.50;;;;;;;;;;5057596;28;20100;-88
2021/12/05 11:48:57;;;;;;;5.63;2.33;;;;;;;;;;5056026;28;20033;-89
2021/12/05 11:51:23;;;;;;;6.50;1.80;;;;;;;;;;5035835;28;20044;-88
2021/12/05 11:53:48;;;;;;;8.98;1.95;;;;;;;;;;5045966;28;20055;-88
2021/12/05 11:56:14;;;;;;;6.00;2.20;;;;;;;;;;5055651;28;20120;-88
2021/12/05 11:58:39;;;;;;;6.00;2.40;;;;;;;;;;5056366;28;20033;-89
2021/12/05 12:01:05;;;;;;;5.78;2.50;;;;;;;;;;5056151;28;20033;-89
2021/12/05 12:03:30;;;;;;;5.63;2.78;;;;;;;;;;5056156;28;20037;-89
2021/12/05 12:05:55;;;;;;;5.07;2.28;;;;;;;;;;5055246;28;20121;-89
2021/12/05 12:08:21;;;;;;;8.48;2.90;;;;;;;;;;5057545;28;20048;-89
2021/12/05 12:10:46;;;;;;;6.65;2.78;;;;;;;;;;5041219;28;20037;-89
2021/12/05 12:13:11;;;;;;;5.15;2.30;;;;;;;;;;5038278;28;20488;-88
2021/12/05 12:15:37;;;;;;;6.90;2.30;;;;;;;;;;5055728;28;20345;-88
2021/12/05 12:18:08;;;;;;;6.30;2.53;;;;;;;;;;5039023;28;20480;-89
2021/12/05 12:20:33;;;;;;;6.38;3.28;;;;;;;;;;5054941;28;20082;-90
2021/12/05 12:22:59;;;;;;;8.32;3.03;;;;;;;;;;5040019;28;20029;-89
2021/12/05 12:25:24;;;;;;;6.72;2.80;;;;;;;;;;5039754;28;20105;-89
2021/12/05 12:27:49;;;;;;;6.18;2.28;;;;;;;;;;5056976;28;20481;-88
2021/12/05 12:30:15;;;;;;;7.90;2.80;;;;;;;;;;5058677;28;20396;-88
2021/12/05 12:32:40;;;;;;;7.10;2.65;;;;;;;;;;5060607;28;20033;-88
2021/12/05 12:35:06;;;;;;;3.85;2.40;;;;;;;;;;5059847;28;20060;-88
2021/12/05 12:37:31;;;;;;;6.18;2.45;;;;;;;;;;5057224;28;20033;-89
2021/12/05 12:39:56;;;;;;;8.60;2.67;;;;;;;;;;5059045;28;20527;-89
2021/12/05 12:42:23;;;;;;;4.40;2.00;;;;;;;;;;5058672;28;20037;-89
2021/12/05 12:44:48;;;;;;;4.95;2.47;;;;;;;;;;5040396;28;20059;-88
2021/12/05 12:47:14;;;;;;;8.15;2.20;;;;;;;;;;5057557;28;20130;-88
2021/12/05 12:49:39;;;;;;;8.23;3.42;;;;;;;;;;5058432;28;20036;-88
2021/12/05 12:52:04;;;;;;;4.05;2.28;;;;;;;;;;5041038;28;20115;-88
2021/12/05 12:54:30;;;;;;;6.63;2.85;;;;;;;;;;5058749;28;20033;-88
2021/12/05 12:56:55;;;;;;;7.40;2.47;;;;;;;;;;5056937;28;20465;-89
2021/12/05 13:12:24;;;;;;;9.75;3.20;;;;;;;;;;5049351;28;20044;-87
2021/12/05 13:14:49;;;;;;;8.38;4.05;;;;;;;;;;5062781;28;20069;-87
2021/12/05 13:17:15;;;;;;;7.75;4.20;;;;;;;;;;5059948;28;20048;-87
2021/12/05 13:19:40;;;;;;;33.25;16.27;;;;;;;;;;5059341;28;20072;-86
2021/12/05 13:22:05;;;;;;;22.52;10.52;;;;;;;;;;5057295;28;20124;-87
2021/12/05 13:24:32;;;;;;;14.45;8.00;;;;;;;;;;5058258;28;20033;-86
2021/12/05 13:27:01;;;;;;;11.35;3.88;;;;;;;;;;5057376;28;20041;-86
2021/12/05 13:29:26;;;;;;;5.72;2.40;;;;;;;;;;5040719;28;20059;-87
2021/12/05 13:31:53;;;;;;;5.35;2.00;;;;;;;;;;5040984;28;20036;-86
2021/12/05 13:34:18;;;;;;;5.55;2.10;;;;;;;;;;5059651;28;20033;-88
2021/12/05 13:36:44;;;;;;;5.57;1.70;;;;;;;;;;5057422;28;20422;-87
2021/12/05 13:39:09;;;;;;;5.07;2.00;;;;;;;;;;5059627;28;20044;-87
2021/12/05 13:41:34;;;;;;;7.10;2.53;;;;;;;;;;5040948;28;20033;-87
2021/12/05 13:44:01;;;;;;;6.53;2.60;;;;;;;;;;5060575;28;20040;-88
2021/12/05 13:46:26;;;;;;;5.38;2.78;;;;;;;;;;5041010;28;20052;-89
2021/12/05 13:48:51;;;;;;;6.88;3.38;;;;;;;;;;5057546;28;20041;-88
2021/12/05 13:51:17;;;;;;;7.28;3.50;;;;;;;;;;5042702;28;20032;-90
2021/12/05 13:53:42;;;;;;;7.63;3.30;;;;;;;;;;5056239;28;20044;-90
2021/12/05 13:56:07;;;;;;;7.25;4.18;;;;;;;;;;5055878;28;20033;-90
2021/12/05 13:58:38;;;;;;;9.50;4.70;;;;;;;;;;5041210;28;20037;-89
2021/12/05 14:01:03;;;;;;;5.75;2.88;;;;;;;;;;5057242;28;20027;-90
2021/12/05 14:03:28;;;;;;;8.90;3.95;;;;;;;;;;5058177;28;20025;-90
2021/12/05 14:05:54;;;;;;;8.85;4.30;;;;;;;;;;5056618;28;20025;-89
2021/12/05 14:08:19;;;;;;;8.82;4.15;;;;;;;;;;5056665;28;20123;-88
2021/12/05 14:10:44;;;;;;;6.25;2.95;;;;;;;;;;5057491;28;20087;-88
2021/12/05 14:13:10;;;;;;;14.80;4.82;;;;;;;;;;5057224;28;20028;-89
2021/12/05 14:15:35;;;;;;;9.68;3.67;;;;;;;;;;5056372;28;20029;-88
2021/12/05 14:18:01;;;;;;;7.90;4.50;;;;;;;;;;5058559;28;20041;-88
2021/12/05 14:20:26;;;;;;;10.07;4.10;;;;;;;;;;5056427;28;20037;-88
2021/12/05 14:22:51;;;;;;;11.05;4.72;;;;;;;;;;5041363;28;20032;-88
2021/12/05 14:25:17;;;;;;;10.15;4.60;;;;;;;;;;5057679;28;20408;-88
2021/12/05 14:27:42;;;;;;;10.25;4.45;;;;;;;;;;5055951;28;20020;-88
2021/12/05 14:30:07;;;;;;;9.35;3.88;;;;;;;;;;5056613;28;20032;-89
2021/12/05 14:32:33;;;;;;;9.63;4.57;;;;;;;;;;5057589;28;20040;-88
2021/12/05 14:34:58;;;;;;;10.68;4.82;;;;;;;;;;5057099;28;20086;-89
2021/12/05 14:37:24;;;;;;;11.10;4.57;;;;;;;;;;5057159;28;20025;-89
2021/12/05 14:39:50;;;;;;;6.68;3.20;;;;;;;;;;5057044;28;20079;-89
2021/12/05 14:42:18;;;;;;;20.60;12.68;;;;;;;;;;5040997;28;20431;-88
2021/12/05 14:44:44;;;;;;;59.83;43.20;;;;;;;;;;5056879;28;20393;-88
2021/12/05 14:47:09;;;;;;;8.30;4.20;;;;;;;;;;5038831;28;20041;-88
2021/12/05 14:49:34;;;;;;;7.70;3.25;;;;;;;;;;5055841;28;20052;-88
2021/12/05 14:52:01;;;;;;;11.57;4.53;;;;;;;;;;5039204;28;20084;-88
2021/12/05 14:54:27;;;;;;;11.35;4.88;;;;;;;;;;5057072;28;20087;-87
2021/12/05 14:56:52;;;;;;;10.23;4.70;;;;;;;;;;5038814;28;20440;-88
2021/12/05 14:59:17;;;;;;;11.45;6.18;;;;;;;;;;5039756;28;20119;-88
2021/12/05 15:01:43;;;;;;;7.88;4.10;;;;;;;;;;5058439;28;20025;-87
2021/12/05 15:04:09;;;;;;;14.10;7.25;;;;;;;;;;5056750;28;20376;-88
2021/12/05 15:06:35;;;;;;;9.40;5.05;;;;;;;;;;5056589;28;20033;-88
2021/12/05 15:09:01;;;;;;;8.23;4.63;;;;;;;;;;5056333;28;20044;-88
2021/12/05 15:11:26;;;;;;;9.18;4.90;;;;;;;;;;5054490;28;20469;-88
2021/12/05 15:13:51;;;;;;;11.98;5.82;;;;;;;;;;5056433;28;20048;-88
2021/12/05 15:16:17;;;;;;;32.80;20.55;;;;;;;;;;5054674;28;20040;-87
2021/12/05 15:18:42;;;;;;;15.27;9.50;;;;;;;;;;5039340;28;20118;-88
2021/12/05 15:21:07;;;;;;;12.50;5.75;;;;;;;;;;5057256;28;20033;-87
2021/12/05 15:23:33;;;;;;;9.02;4.18;;;;;;;;;;5056020;28;20087;-87
2021/12/05 15:25:58;;;;;;;7.40;3.78;;;;;;;;;;5055087;28;20098;-88
2021/12/05 15:28:23;;;;;;;7.82;3.35;;;;;;;;;;5056451;28;20029;-88
2021/12/05 15:30:49;;;;;;;5.78;3.78;;;;;;;;;;5056497;28;20082;-88
2021/12/05 15:33:14;;;;;;;8.35;4.20;;;;;;;;;;5057232;28;20119;-88
2021/12/05 15:35:39;;;;;;;14.43;4.32;;;;;;;;;;5056210;28;20082;-88
2021/12/05 15:38:04;;;;;;;7.97;3.95;;;;;;;;;;5046810;28;20128;-88
2021/12/05 15:40:30;;;;;;;7.20;3.97;;;;;;;;;;5042762;28;20114;-89
2021/12/05 15:42:55;;;;;;;6.45;3.55;;;;;;;;;;5045146;28;20033;-88
2021/12/05 15:45:20;;;;;;;10.05;3.75;;;;;;;;;;5034964;28;20037;-89
2021/12/05 15:47:46;;;;;;;11.10;3.55;;;;;;;;;;5035914;28;20037;-88
2021/12/05 15:50:11;;;;;;;6.82;3.13;;;;;;;;;;5049028;28;20037;-88
2021/12/05 15:52:36;;;;;;;6.00;2.75;;;;;;;;;;5053205;28;20047;-89
2021/12/05 15:55:02;;;;;;;7.43;3.72;;;;;;;;;;5055464;28;20162;-89
2021/12/05 15:57:30;;;;;;;7.22;3.72;;;;;;;;;;5054568;28;20100;-89
2021/12/05 15:59:56;;;;;;;8.80;3.53;;;;;;;;;;5054684;28;20045;-88
2021/12/05 16:02:21;;;;;;;6.22;3.28;;;;;;;;;;5054400;28;20051;-88
2021/12/05 16:04:46;;;;;;;6.30;3.38;;;;;;;;;;5043287;28;20060;-89
2021/12/05 16:07:12;;;;;;;7.25;3.55;;;;;;;;;;5060200;28;20036;-88
2021/12/05 16:09:37;;;;;;;9.98;4.25;;;;;;;;;;5060932;28;20040;-88
2021/12/05 16:12:02;;;;;;;9.10;4.30;;;;;;;;;;5061425;28;20029;-89
2021/12/05 16:14:28;;;;;;;9.30;4.43;;;;;;;;;;5043982;28;20136;-88
2021/12/05 16:16:53;;;;;;;8.40;4.45;;;;;;;;;;5061644;28;20048;-87
2021/12/05 16:19:18;;;;;;;10.18;5.30;;;;;;;;;;5062102;28;20040;-88
2021/12/05 16:21:44;;;;;;;15.05;6.50;;;;;;;;;;5061152;28;20029;-89
2021/12/05 16:24:09;;;;;;;18.98;7.47;;;;;;;;;;5045362;28;20117;-89
2021/12/05 16:26:34;;;;;;;16.40;6.95;;;;;;;;;;5060076;28;20435;-89
2021/12/05 16:29:00;;;;;;;19.10;7.15;;;;;;;;;;5062428;28;20377;-88
2021/12/05 16:31:25;;;;;;;12.18;5.43;;;;;;;;;;5062491;28;20432;-89
2021/12/05 16:33:50;;;;;;;11.95;6.15;;;;;;;;;;5061595;28;20434;-88
2021/12/05 16:36:17;;;;;;;8.43;4.65;;;;;;;;;;5062256;28;20530;-88
2021/12/05 16:38:42;;;;;;;8.68;4.03;;;;;;;;;;5061043;28;20504;-90
2021/12/05 16:41:08;;;;;;;7.13;3.35;;;;;;;;;;5062536;28;20033;-90
2021/12/05 16:43:33;;;;;;;6.07;2.90;;;;;;;;;;5063120;28;20481;-89
2021/12/05 16:45:58;;;;;;;6.43;3.22;;;;;;;;;;5066736;28;20024;-90
2021/12/05 16:48:24;;;;;;;6.50;3.30;;;;;;;;;;5066157;28;20131;-91
2021/12/05 16:50:49;;;;;;;9.82;3.95;;;;;;;;;;5049000;28;20060;-89
2021/12/05 16:53:16;;;;;;;13.98;4.30;;;;;;;;;;5066461;28;20035;-89
2021/12/05 16:55:41;;;;;;;11.13;4.20;;;;;;;;;;5065239;28;20064;-89
2021/12/05 16:58:16;;;;;;;9.90;3.90;;;;;;;;;;5068191;28;20036;-88
2021/12/05 17:00:41;;;;;;;8.32;3.80;;;;;;;;;;5045726;28;20033;-88
2021/12/05 17:03:07;;;;;;;7.35;3.63;;;;;;;;;;5049176;28;20036;-88
2021/12/05 17:05:33;;;;;;;10.93;3.78;;;;;;;;;;5061477;28;20033;-88
2021/12/05 17:10:30;;;;;;;8.00;3.15;;;;;;;;;;5060377;28;20040;-88
2021/12/05 17:12:55;;;;;;;9.20;3.60;;;;;;;;;;5061555;28;20037;-88
2021/12/05 17:15:20;;;;;;;8.98;3.83;;;;;;;;;;5038000;28;20047;-88
2021/12/05 17:17:46;;;;;;;5.65;3.35;;;;;;;;;;5058934;28;20036;-88
2021/12/05 17:20:11;;;;;;;11.68;5.25;;;;;;;;;;5059038;28;20037;-88
2021/12/05 17:22:36;;;;;;;14.98;6.18;;;;;;;;;;5058683;28;20029;-88
2021/12/05 17:25:02;;;;;;;13.55;6.40;;;;;;;;;;5058643;28;20044;-90
2021/12/05 17:27:27;;;;;;;13.38;6.78;;;;;;;;;;5040659;28;20036;-88
2021/12/05 17:29:53;;;;;;;15.98;7.57;;;;;;;;;;5060517;28;20527;-87
2021/12/05 17:32:23;;;;;;;16.30;7.93;;;;;;;;;;5057900;28;20033;-88
2021/12/05 17:34:49;;;;;;;18.40;8.98;;;;;;;;;;5056576;28;20135;-88
2021/12/05 17:37:14;;;;;;;16.60;8.25;;;;;;;;;;5056452;28;20064;-88
2021/12/05 17:39:39;;;;;;;15.05;8.10;;;;;;;;;;5040362;28;20120;-87
2021/12/05 17:42:05;;;;;;;19.25;8.93;;;;;;;;;;5057521;28;20059;-88
2021/12/05 17:44:30;;;;;;;19.52;8.38;;;;;;;;;;5056288;28;20037;-88
2021/12/05 17:46:55;;;;;;;14.70;8.18;;;;;;;;;;5056305;28;20500;-88
2021/12/05 17:49:21;;;;;;;17.27;7.90;;;;;;;;;;5056420;28;20492;-86
2021/12/05 17:51:46;;;;;;;17.02;8.05;;;;;;;;;;5058456;28;20060;-89
2021/12/05 17:54:12;;;;;;;16.13;7.95;;;;;;;;;;5057385;28;20067;-88
2021/12/05 17:59:12;;;;;;;7.43;4.25;;;;;;;;;;5055996;28;20477;-88
2021/12/05 18:04:22;;;;;;;6.18;3.70;;;;;;;;;;5055654;28;20037;-90
2021/12/05 18:06:47;;;;;;;8.05;3.90;;;;;;;;;;5056274;28;20037;-88
2021/12/05 18:09:13;;;;;;;6.68;3.85;;;;;;;;;;5057128;28;20427;-91
2021/12/05 18:11:38;;;;;;;15.05;6.95;;;;;;;;;;5056611;28;20147;-90
2021/12/05 18:14:04;;;;;;;18.02;8.88;;;;;;;;;;5056916;28;20120;-89
2021/12/05 18:16:31;;;;;;;22.00;10.45;;;;;;;;;;5055823;28;20388;-90
2021/12/05 18:18:56;;;;;;;28.88;12.40;;;;;;;;;;5057773;28;20025;-89
2021/12/05 18:21:22;;;;;;;33.35;13.75;;;;;;;;;;5056007;28;20043;-90
2021/12/05 18:23:47;;;;;;;22.58;11.38;;;;;;;;;;5057358;28;20033;-89
2021/12/05 18:26:12;;;;;;;35.20;14.18;;;;;;;;;;5056571;28;20465;-89
2021/12/05 18:28:38;;;;;;;26.80;11.68;;;;;;;;;;5055754;28;20021;-89
2021/12/05 18:31:04;;;;;;;22.23;10.45;;;;;;;;;;5039279;28;20025;-90
2021/12/05 18:33:30;;;;;;;29.25;13.43;;;;;;;;;;5055051;28;20396;-88
2021/12/05 18:35:55;;;;;;;27.88;11.75;;;;;;;;;;5055384;28;20025;-89
2021/12/05 18:38:22;;;;;;;30.08;12.50;;;;;;;;;;5038731;28;20064;-89
2021/12/05 18:40:49;;;;;;;26.55;10.73;;;;;;;;;;5056736;28;20075;-89
2021/12/05 18:43:16;;;;;;;27.50;12.82;;;;;;;;;;5039047;28;20033;-89
2021/12/05 18:45:42;;;;;;;22.42;10.00;;;;;;;;;;5058207;28;20033;-89
2021/12/05 18:48:08;;;;;;;17.88;9.23;;;;;;;;;;5057258;28;20029;-89
2021/12/05 18:50:33;;;;;;;19.60;9.30;;;;;;;;;;5056737;28;20086;-89
2021/12/05 18:52:58;;;;;;;14.23;7.75;;;;;;;;;;5055378;28;20040;-89
2021/12/05 18:55:25;;;;;;;13.55;7.20;;;;;;;;;;5056328;28;20041;-88
2021/12/05 18:57:52;;;;;;;12.15;6.57;;;;;;;;;;5055455;28;20538;-89
2021/12/05 19:00:40;;;;;;;12.48;6.65;;;;;;;;;;5056012;28;20036;-89
2021/12/05 19:05:54;;;;;;;10.05;5.90;;;;;;;;;;5056051;28;20492;-89
2021/12/05 19:13:49;;;;;;;11.85;6.35;;;;;;;;;;5056445;28;20036;-88
2021/12/05 19:16:14;;;;;;;12.15;6.20;;;;;;;;;;5056165;28;20044;-88
2021/12/05 19:18:40;;;;;;;15.18;7.55;;;;;;;;;;5056149;28;20124;-88
2021/12/05 19:21:05;;;;;;;20.15;12.18;;;;;;;;;;5055572;28;20118;-89
2021/12/05 19:23:30;;;;;;;20.25;10.23;;;;;;;;;;5055164;28;20139;-89
2021/12/05 19:25:56;;;;;;;17.00;9.40;;;;;;;;;;5056204;28;20460;-89
2021/12/05 19:28:21;;;;;;;15.20;9.20;;;;;;;;;;5054347;28;20025;-89
2021/12/05 19:30:46;;;;;;;16.77;9.70;;;;;;;;;;5056069;28;20087;-88
2021/12/05 19:33:12;;;;;;;17.80;8.55;;;;;;;;;;5056176;28;20044;-89
2021/12/05 19:35:38;;;;;;;15.95;8.63;;;;;;;;;;5053718;28;20071;-89
2021/12/05 19:38:04;;;;;;;14.07;8.75;;;;;;;;;;5055242;28;20094;-89
2021/12/05 19:40:29;;;;;;;20.60;8.05;;;;;;;;;;5055648;28;20473;-88
2021/12/05 19:42:57;;;;;;;15.88;8.18;;;;;;;;;;5054449;28;20048;-89
2021/12/05 19:45:22;;;;;;;13.88;7.88;;;;;;;;;;5054071;28;20048;-89
2021/12/05 19:47:48;;;;;;;11.35;7.07;;;;;;;;;;5054486;28;20037;-88
2021/12/05 19:50:13;;;;;;;13.20;6.93;;;;;;;;;;5055574;28;20396;-89
2021/12/05 19:52:39;;;;;;;13.23;7.57;;;;;;;;;;5055412;28;20528;-88
2021/12/05 19:55:04;;;;;;;13.27;7.20;;;;;;;;;;5055442;28;20040;-88
2021/12/05 19:57:31;;;;;;;22.25;9.35;;;;;;;;;;5054307;28;20060;-89
2021/12/05 19:59:56;;;;;;;15.88;7.40;;;;;;;;;;5054501;28;20068;-89
2021/12/05 20:02:22;;;;;;;15.02;6.88;;;;;;;;;;5054301;28;20048;-88
2021/12/05 20:04:53;;;;;;;16.85;7.82;;;;;;;;;;5055270;28;20037;-88
2021/12/05 20:07:18;;;;;;;12.15;6.22;;;;;;;;;;5053972;28;20024;-88
2021/12/05 20:09:43;;;;;;;12.00;6.57;;;;;;;;;;5037630;28;20041;-88
2021/12/05 20:12:09;;;;;;;12.50;5.57;;;;;;;;;;5054660;28;20057;-88
2021/12/05 20:14:34;;;;;;;10.60;5.07;;;;;;;;;;5054759;28;20052;-88
2021/12/05 20:16:59;;;;;;;9.15;4.70;;;;;;;;;;5053770;28;20029;-88
2021/12/05 20:19:25;;;;;;;9.95;4.60;;;;;;;;;;5054855;28;20025;-89
2021/12/05 20:21:51;;;;;;;8.82;4.25;;;;;;;;;;5053632;28;20068;-89
2021/12/05 20:24:16;;;;;;;7.60;3.95;;;;;;;;;;5054038;28;20036;-88
2021/12/05 20:26:42;;;;;;;8.85;3.50;;;;;;;;;;5036690;28;20041;-88
2021/12/05 20:29:08;;;;;;;7.40;3.20;;;;;;;;;;5054696;28;20127;-88
2021/12/05 20:31:34;;;;;;;5.25;3.03;;;;;;;;;;5054106;28;20104;-89
2021/12/05 20:34:01;;;;;;;4.82;2.92;;;;;;;;;;5053983;28;20056;-89
2021/12/05 20:36:26;;;;;;;6.55;3.22;;;;;;;;;;5055372;28;20052;-88
2021/12/05 20:38:52;;;;;;;4.85;2.67;;;;;;;;;;5056388;28;20036;-89
2021/12/05 20:41:17;;;;;;;6.20;2.47;;;;;;;;;;5060132;28;20485;-88